createdAt,value
2023-04-30T00:01:34.440Z,65.92
2023-04-30T00:04:03.743Z,65.50
2023-04-30T00:06:31.366Z,66.10
2023-04-30T00:08:58.898Z,66.58
2023-04-30T00:11:27.487Z,66.64
2023-04-30T00:13:56.101Z,67.09
2023-04-30T00:16:23.779Z,66.95
2023-04-30T00:18:52.301Z,67.08
2023-04-30T00:21:21.222Z,66.10
2023-04-30T00:23:50.304Z,65.88
2023-04-30T00:26:19.065Z,65.53
2023-04-30T00:28:47.662Z,64.79
2023-04-30T00:31:16.243Z,64.87
2023-04-30T00:33:45.608Z,65.78
2023-04-30T00:36:13.474Z,65.40
2023-04-30T00:38:41.068Z,65.45
2023-04-30T00:41:10.138Z,65.47
2023-04-30T00:43:38.337Z,65.46
2023-04-30T00:46:07.647Z,65.77
2023-04-30T00:48:35.524Z,66.05
2023-04-30T00:51:02.122Z,66.37
2023-04-30T00:53:29.735Z,66.81
2023-04-30T00:55:57.294Z,65.79
2023-04-30T00:58:25.014Z,66.47
2023-04-30T01:00:52.521Z,66.81
2023-04-30T01:03:21.162Z,66.14
2023-04-30T01:05:49.679Z,66.10
2023-04-30T01:08:18.436Z,66.17
2023-04-30T01:10:45.853Z,66.34
2023-04-30T01:13:12.458Z,66.26
2023-04-30T01:15:40.108Z,66.11
2023-04-30T01:18:07.965Z,65.45
2023-04-30T01:20:35.264Z,65.19
2023-04-30T01:23:01.832Z,65.15
2023-04-30T01:25:28.298Z,65.21
2023-04-30T01:27:54.783Z,65.24
2023-04-30T01:30:21.435Z,65.08
2023-04-30T01:32:47.967Z,64.99
2023-04-30T01:35:16.734Z,64.66
2023-04-30T01:37:45.355Z,65.10
2023-04-30T01:40:12.958Z,64.40
2023-04-30T01:42:41.533Z,64.38
2023-04-30T01:45:10.151Z,64.31
2023-04-30T01:47:37.815Z,64.37
2023-04-30T01:50:06.347Z,64.67
2023-04-30T01:52:33.920Z,64.73
2023-04-30T01:55:02.884Z,64.92
2023-04-30T01:57:31.138Z,64.97
2023-04-30T01:59:58.735Z,64.44
2023-04-30T02:02:26.354Z,65.30
2023-04-30T02:04:54.886Z,64.81
2023-04-30T02:07:22.499Z,64.60
2023-04-30T02:09:50.092Z,64.32
2023-04-30T02:12:18.943Z,64.33
2023-04-30T02:14:47.279Z,65.23
2023-04-30T02:17:16.253Z,65.37
2023-04-30T02:19:44.460Z,65.54
2023-04-30T02:22:11.357Z,65.00
2023-04-30T02:24:39.070Z,65.02
2023-04-30T02:27:05.850Z,65.15
2023-04-30T02:29:32.408Z,64.95
2023-04-30T02:31:59.465Z,65.21
2023-04-30T02:34:27.019Z,65.13
2023-04-30T02:36:54.592Z,64.53
2023-04-30T02:39:23.560Z,64.71
2023-04-30T02:41:51.795Z,64.62
2023-04-30T02:44:19.369Z,63.82
2023-04-30T02:46:48.080Z,64.53
2023-04-30T02:49:16.597Z,65.36
2023-04-30T02:51:45.371Z,64.26
2023-04-30T02:54:13.773Z,65.42
2023-04-30T02:56:41.353Z,64.41
2023-04-30T02:59:09.954Z,64.81
2023-04-30T03:01:38.623Z,64.98
2023-04-30T03:04:06.160Z,65.84
2023-04-30T03:06:33.785Z,66.04
2023-04-30T03:09:01.352Z,65.83
2023-04-30T03:11:29.949Z,65.25
2023-04-30T03:13:56.533Z,65.05
2023-04-30T03:16:25.697Z,65.26
2023-04-30T03:18:52.726Z,65.60
2023-04-30T03:21:21.320Z,66.78
2023-04-30T03:23:50.293Z,66.50
2023-04-30T03:26:19.006Z,66.20
2023-04-30T03:28:47.120Z,66.02
2023-04-30T03:31:15.805Z,66.31
2023-04-30T03:33:44.790Z,66.95
2023-04-30T03:36:11.897Z,66.27
2023-04-30T03:38:39.478Z,66.49
2023-04-30T03:41:06.427Z,66.90
2023-04-30T03:43:34.695Z,66.76
2023-04-30T03:46:02.332Z,65.88
2023-04-30T03:48:29.850Z,67.68
2023-04-30T03:50:58.476Z,67.49
2023-04-30T03:53:27.280Z,67.49
2023-04-30T03:55:55.621Z,67.81
2023-04-30T03:58:23.225Z,67.14
2023-04-30T04:00:51.821Z,67.22
2023-04-30T04:03:19.450Z,67.93
2023-04-30T04:05:47.998Z,67.89
2023-04-30T04:08:15.597Z,68.05
2023-04-30T04:10:44.173Z,68.56
2023-04-30T04:13:10.778Z,68.67
2023-04-30T04:15:39.446Z,69.46
2023-04-30T04:18:07.165Z,68.49
2023-04-30T04:20:36.201Z,68.67
2023-04-30T04:23:05.244Z,68.37
2023-04-30T04:25:32.736Z,68.98
2023-04-30T04:28:01.353Z,68.69
2023-04-30T04:30:27.942Z,69.27
2023-04-30T04:32:54.458Z,69.85
2023-04-30T04:35:20.957Z,70.25
2023-04-30T04:37:48.712Z,70.57
2023-04-30T04:40:16.326Z,69.46
2023-04-30T04:42:44.939Z,70.09
2023-04-30T04:45:13.545Z,69.24
2023-04-30T04:47:41.178Z,69.52
2023-04-30T04:50:08.721Z,68.75
2023-04-30T04:52:36.306Z,68.53
2023-04-30T04:55:04.919Z,68.49
2023-04-30T04:57:33.986Z,68.72
2023-04-30T05:00:02.103Z,68.65
2023-04-30T05:02:30.758Z,68.28
2023-04-30T05:04:58.346Z,69.25
2023-04-30T05:07:25.939Z,68.23
2023-04-30T05:09:54.620Z,68.99
2023-04-30T05:12:23.105Z,68.82
2023-04-30T05:14:52.107Z,68.40
2023-04-30T05:17:20.349Z,69.15
2023-04-30T05:19:47.875Z,68.96
2023-04-30T05:22:15.493Z,68.87
2023-04-30T05:24:44.637Z,68.08
2023-04-30T05:27:11.664Z,68.44
2023-04-30T05:29:39.244Z,69.02
2023-04-30T05:32:08.077Z,68.49
2023-04-30T05:34:35.443Z,68.02
2023-04-30T05:37:04.570Z,67.80
2023-04-30T05:39:32.649Z,68.95
2023-04-30T05:42:00.247Z,67.95
2023-04-30T05:44:28.937Z,68.33
2023-04-30T05:46:56.530Z,68.51
2023-04-30T05:49:24.032Z,68.89
2023-04-30T05:51:51.618Z,69.17
2023-04-30T05:54:20.384Z,68.38
2023-04-30T05:56:49.150Z,69.43
2023-04-30T05:59:17.424Z,67.84
2023-04-30T06:01:46.032Z,68.85
2023-04-30T06:04:15.005Z,68.26
2023-04-30T06:06:42.248Z,68.50
2023-04-30T06:09:09.806Z,68.46
2023-04-30T06:11:37.418Z,67.75
2023-04-30T06:14:04.977Z,68.36
2023-04-30T06:16:31.460Z,69.04
2023-04-30T06:18:57.908Z,68.30
2023-04-30T06:21:24.414Z,68.27
2023-04-30T06:23:52.356Z,68.18
2023-04-30T06:26:21.387Z,69.20
2023-04-30T06:28:50.106Z,68.26
2023-04-30T06:31:17.187Z,68.79
2023-04-30T06:33:44.749Z,69.10
2023-04-30T06:36:11.770Z,68.53
2023-04-30T06:38:39.921Z,69.28
2023-04-30T06:41:09.175Z,69.05
2023-04-30T06:43:36.097Z,67.95
2023-04-30T06:46:03.805Z,68.93
2023-04-30T06:48:32.292Z,68.24
2023-04-30T06:51:00.915Z,69.15
2023-04-30T06:53:28.495Z,68.68
2023-04-30T06:55:56.155Z,68.97
2023-04-30T06:58:23.681Z,68.40
2023-04-30T07:00:51.279Z,68.09
2023-04-30T07:03:20.202Z,67.92
2023-04-30T07:05:48.507Z,67.32
2023-04-30T07:08:16.050Z,67.16
2023-04-30T07:10:45.154Z,66.83
2023-04-30T07:13:13.301Z,67.54
2023-04-30T07:15:40.935Z,66.92
2023-04-30T07:18:08.530Z,67.07
2023-04-30T07:20:37.517Z,65.34
2023-04-30T07:23:05.715Z,65.77
2023-04-30T07:25:34.822Z,65.15
2023-04-30T07:28:01.899Z,64.28
2023-04-30T07:30:30.516Z,64.30
2023-04-30T07:32:59.142Z,62.67
2023-04-30T07:35:27.844Z,60.58
2023-04-30T07:37:56.711Z,59.81
2023-04-30T07:40:34.995Z,60.15
2023-04-30T07:43:04.970Z,57.74
2023-04-30T07:45:33.122Z,58.98
2023-04-30T07:47:59.757Z,58.89
2023-04-30T07:50:26.547Z,58.20
2023-04-30T07:52:53.106Z,57.55
2023-04-30T07:55:19.632Z,57.47
2023-04-30T07:57:47.111Z,57.42
2023-04-30T08:00:14.708Z,57.70
2023-04-30T08:02:44.144Z,57.72
2023-04-30T08:05:11.884Z,57.00
2023-04-30T08:07:40.452Z,57.71
2023-04-30T08:10:07.073Z,58.47
2023-04-30T08:12:34.643Z,58.37
2023-04-30T08:15:01.090Z,59.59
2023-04-30T08:17:27.840Z,59.61
2023-04-30T08:19:55.661Z,59.20
2023-04-30T08:22:23.021Z,58.80
2023-04-30T08:24:50.633Z,58.74
2023-04-30T08:27:18.230Z,59.19
2023-04-30T08:29:45.806Z,59.08
2023-04-30T08:32:12.540Z,58.05
2023-04-30T08:34:39.963Z,57.91
2023-04-30T08:37:07.558Z,57.86
2023-04-30T08:39:34.140Z,56.65
2023-04-30T08:42:00.743Z,57.35
2023-04-30T08:44:27.331Z,57.82
2023-04-30T08:46:53.919Z,57.40
2023-04-30T08:49:24.505Z,58.02
2023-04-30T08:51:52.159Z,57.53
2023-04-30T08:54:19.707Z,58.15
2023-04-30T08:56:46.283Z,57.35
2023-04-30T08:59:13.900Z,57.75
2023-04-30T09:01:40.540Z,57.45
2023-04-30T09:04:08.259Z,57.27
2023-04-30T09:06:37.155Z,57.88
2023-04-30T09:09:04.236Z,56.83
2023-04-30T09:11:31.453Z,56.90
2023-04-30T09:13:58.448Z,56.90
2023-04-30T09:16:27.535Z,57.35
2023-04-30T09:18:58.984Z,56.59
2023-04-30T09:21:26.225Z,56.26
2023-04-30T09:23:53.833Z,55.26
2023-04-30T09:26:20.348Z,55.10
2023-04-30T09:28:46.778Z,55.79
2023-04-30T09:31:13.309Z,54.56
2023-04-30T09:33:40.163Z,55.22
2023-04-30T09:36:06.801Z,56.07
2023-04-30T09:38:34.420Z,57.11
2023-04-30T09:41:02.129Z,57.36
2023-04-30T09:43:29.669Z,56.73
2023-04-30T09:45:56.146Z,57.55
2023-04-30T09:48:24.837Z,58.50
2023-04-30T09:50:52.362Z,58.47
2023-04-30T09:53:19.979Z,57.27
2023-04-30T09:55:46.581Z,57.46
2023-04-30T09:58:14.200Z,59.17
2023-04-30T10:00:42.833Z,57.00
2023-04-30T10:03:10.452Z,57.43
2023-04-30T10:05:37.930Z,56.88
2023-04-30T10:08:04.528Z,55.93
2023-04-30T10:10:30.970Z,55.33
2023-04-30T10:12:57.698Z,55.91
2023-04-30T10:15:25.331Z,56.00
2023-04-30T10:17:52.961Z,56.08
2023-04-30T10:20:19.953Z,56.16
2023-04-30T10:22:48.173Z,56.53
2023-04-30T10:25:15.683Z,55.21
2023-04-30T10:27:46.274Z,56.80
2023-04-30T10:30:13.878Z,55.00
2023-04-30T10:32:41.510Z,55.54
2023-04-30T10:35:09.078Z,55.42
2023-04-30T10:37:36.631Z,56.62
2023-04-30T10:40:04.262Z,56.57
2023-04-30T10:42:31.853Z,56.33
2023-04-30T10:44:59.444Z,56.72
2023-04-30T10:47:28.091Z,55.13
2023-04-30T10:49:56.931Z,55.46
2023-04-30T10:52:25.467Z,55.45
2023-04-30T10:54:52.836Z,54.75
2023-04-30T10:57:20.424Z,54.49
2023-04-30T10:59:48.083Z,52.88
2023-04-30T11:02:15.606Z,55.20
2023-04-30T11:04:44.318Z,56.78
2023-04-30T11:07:11.836Z,55.67
2023-04-30T11:09:39.417Z,55.65
2023-04-30T11:12:07.022Z,55.21
2023-04-30T11:14:34.602Z,54.75
2023-04-30T11:17:02.210Z,55.14
2023-04-30T11:19:28.800Z,54.55
2023-04-30T11:21:55.397Z,54.39
2023-04-30T11:24:21.989Z,54.66
2023-04-30T11:26:49.569Z,54.17
2023-04-30T11:29:17.183Z,54.23
2023-04-30T11:31:44.833Z,55.46
2023-04-30T11:34:13.465Z,54.07
2023-04-30T11:36:40.951Z,54.06
2023-04-30T11:39:10.282Z,55.33
2023-04-30T11:41:38.148Z,53.40
2023-04-30T11:44:05.738Z,53.60
2023-04-30T11:46:33.356Z,51.79
2023-04-30T11:49:01.933Z,52.46
2023-04-30T11:51:29.562Z,52.14
2023-04-30T11:53:57.096Z,52.13
2023-04-30T11:56:23.561Z,52.07
2023-04-30T11:58:50.317Z,51.51
2023-04-30T12:01:16.893Z,52.02
2023-04-30T12:03:43.573Z,51.85
2023-04-30T12:06:12.210Z,51.46
2023-04-30T12:08:40.651Z,50.85
2023-04-30T12:11:09.223Z,52.44
2023-04-30T12:13:37.833Z,51.90
2023-04-30T12:16:05.504Z,51.30
2023-04-30T12:18:34.012Z,51.17
2023-04-30T12:21:02.618Z,49.89
2023-04-30T12:23:31.238Z,50.24
2023-04-30T12:25:58.780Z,49.78
2023-04-30T12:28:25.410Z,50.58
2023-04-30T12:30:51.968Z,50.02
2023-04-30T12:33:19.619Z,50.60
2023-04-30T12:35:47.162Z,49.47
2023-04-30T12:38:13.747Z,48.99
2023-04-30T12:40:40.360Z,49.59
2023-04-30T12:43:08.947Z,50.31
2023-04-30T12:45:37.534Z,50.17
2023-04-30T12:48:04.192Z,49.72
2023-04-30T12:50:31.743Z,50.83
2023-04-30T12:52:59.324Z,50.22
2023-04-30T12:55:25.903Z,50.58
2023-04-30T12:57:53.518Z,51.62
2023-04-30T13:00:20.120Z,49.96
2023-04-30T13:02:47.807Z,49.83
2023-04-30T13:05:16.911Z,49.20
2023-04-30T13:07:43.870Z,51.36
2023-04-30T13:10:11.461Z,50.50
2023-04-30T13:12:39.067Z,49.75
2023-04-30T13:15:06.647Z,51.69
2023-04-30T13:17:34.362Z,51.41
2023-04-30T13:20:01.871Z,51.83
2023-04-30T13:22:29.450Z,52.87
2023-04-30T13:24:57.059Z,51.96
2023-04-30T13:27:25.655Z,52.39
2023-04-30T13:29:52.251Z,52.91
2023-04-30T13:32:19.852Z,52.43
2023-04-30T13:34:47.432Z,51.60
2023-04-30T13:37:16.671Z,52.09
2023-04-30T13:39:43.634Z,51.62
2023-04-30T13:42:11.284Z,52.96
2023-04-30T13:44:38.814Z,52.46
2023-04-30T13:47:07.659Z,52.04
2023-04-30T13:49:35.011Z,52.31
2023-04-30T13:52:01.601Z,51.56
2023-04-30T13:54:28.317Z,52.56
2023-04-30T13:56:57.044Z,51.18
2023-04-30T13:59:24.382Z,51.54
2023-04-30T14:01:51.993Z,52.07
2023-04-30T14:04:18.998Z,52.21
2023-04-30T14:06:47.268Z,50.90
2023-04-30T14:09:14.747Z,52.10
2023-04-30T14:11:41.377Z,50.78
2023-04-30T14:14:10.410Z,51.43
2023-04-30T14:16:37.644Z,50.75
2023-04-30T14:19:05.154Z,52.01
2023-04-30T14:21:32.753Z,52.50
2023-04-30T14:24:00.330Z,51.30
2023-04-30T14:26:27.971Z,50.72
2023-04-30T14:28:55.524Z,52.34
2023-04-30T14:31:23.137Z,51.99
2023-04-30T14:33:50.699Z,51.63
2023-04-30T14:36:18.272Z,51.43
2023-04-30T14:38:45.869Z,49.92
2023-04-30T14:41:14.526Z,49.83
2023-04-30T14:43:42.065Z,50.46
2023-04-30T14:46:08.605Z,50.55
2023-04-30T14:48:35.261Z,49.63
2023-04-30T14:51:03.829Z,51.61
2023-04-30T14:53:31.472Z,49.63
2023-04-30T14:56:00.020Z,49.47
2023-04-30T14:58:28.646Z,49.46
2023-04-30T15:00:56.314Z,49.42
2023-04-30T15:03:23.925Z,49.49
2023-04-30T15:05:51.400Z,49.24
2023-04-30T15:08:17.883Z,49.90
2023-04-30T15:10:46.598Z,49.44
2023-04-30T15:13:14.207Z,47.32
2023-04-30T15:15:41.899Z,47.79
2023-04-30T15:18:09.503Z,49.06
2023-04-30T15:20:38.424Z,47.72
2023-04-30T15:23:06.628Z,48.97
2023-04-30T15:25:34.183Z,49.03
2023-04-30T15:28:00.661Z,49.75
2023-04-30T15:30:27.125Z,49.59
2023-04-30T15:32:54.042Z,49.89
2023-04-30T15:35:21.528Z,50.88
2023-04-30T15:37:48.008Z,50.69
2023-04-30T15:40:14.501Z,50.63
2023-04-30T15:42:41.329Z,50.25
2023-04-30T15:45:08.931Z,51.89
2023-04-30T15:47:36.521Z,51.73
2023-04-30T15:50:04.146Z,51.13
2023-04-30T15:52:31.685Z,50.87
2023-04-30T15:54:59.369Z,52.39
2023-04-30T15:57:26.237Z,52.30
2023-04-30T15:59:53.612Z,52.52
2023-04-30T16:02:21.070Z,52.54
2023-04-30T16:04:48.683Z,52.47
2023-04-30T16:07:16.248Z,52.29
2023-04-30T16:09:42.821Z,52.62
2023-04-30T16:12:10.449Z,52.53
2023-04-30T16:14:37.068Z,51.95
2023-04-30T16:17:04.302Z,51.87
2023-04-30T16:19:31.232Z,52.46
2023-04-30T16:21:58.835Z,52.67
2023-04-30T16:24:26.438Z,52.09
2023-04-30T16:26:54.033Z,51.85
2023-04-30T16:29:21.624Z,52.53
2023-04-30T16:31:49.228Z,52.64
2023-04-30T16:34:16.828Z,53.34
2023-04-30T16:36:44.402Z,53.21
2023-04-30T16:39:13.910Z,54.11
2023-04-30T16:41:42.602Z,53.33
2023-04-30T16:44:09.270Z,52.93
2023-04-30T16:46:36.136Z,53.46
2023-04-30T16:49:02.735Z,54.10
2023-04-30T16:51:31.662Z,54.31
2023-04-30T16:53:59.668Z,53.60
2023-04-30T16:56:27.286Z,54.62
2023-04-30T16:58:54.865Z,54.82
2023-04-30T17:01:22.574Z,55.02
2023-04-30T17:03:50.143Z,55.02
2023-04-30T17:06:17.608Z,54.00
2023-04-30T17:08:45.226Z,55.07
2023-04-30T17:11:12.828Z,54.71
2023-04-30T17:13:41.413Z,55.34
2023-04-30T17:16:08.066Z,55.27
2023-04-30T17:18:34.819Z,55.13
2023-04-30T17:21:02.421Z,55.36
2023-04-30T17:23:30.011Z,54.61
2023-04-30T17:25:57.645Z,54.91
2023-04-30T17:28:25.209Z,55.53
2023-04-30T17:30:52.853Z,55.55
2023-04-30T17:33:21.565Z,56.00
2023-04-30T17:35:49.016Z,56.12
2023-04-30T17:38:17.603Z,55.83
2023-04-30T17:40:45.208Z,55.75
2023-04-30T17:43:12.795Z,55.85
2023-04-30T17:45:41.369Z,55.43
2023-04-30T17:48:09.078Z,55.60
2023-04-30T17:50:36.598Z,55.26
2023-04-30T17:53:03.402Z,56.31
2023-04-30T17:55:30.773Z,57.80
2023-04-30T17:57:57.357Z,57.76
2023-04-30T18:00:24.957Z,57.61
2023-04-30T18:02:51.757Z,59.74
2023-04-30T18:05:19.141Z,59.06
2023-04-30T18:07:45.738Z,57.43
2023-04-30T18:10:12.354Z,58.53
2023-04-30T18:12:39.917Z,58.39
2023-04-30T18:15:07.517Z,58.91
2023-04-30T18:17:36.914Z,58.68
2023-04-30T18:20:04.751Z,59.28
2023-04-30T18:22:32.332Z,58.90
2023-04-30T18:24:58.840Z,60.08
2023-04-30T18:27:25.338Z,60.41
2023-04-30T18:29:51.844Z,61.11
2023-04-30T18:32:18.715Z,61.43
2023-04-30T18:34:46.305Z,61.34
2023-04-30T18:37:13.922Z,61.02
2023-04-30T18:39:40.522Z,60.62
2023-04-30T18:42:08.123Z,60.95
2023-04-30T18:44:34.737Z,62.03
2023-04-30T18:47:01.190Z,61.23
2023-04-30T18:49:27.898Z,61.22
2023-04-30T18:51:54.740Z,61.89
2023-04-30T18:54:21.219Z,61.23
2023-04-30T18:56:47.705Z,61.53
2023-04-30T18:59:15.300Z,61.83
2023-04-30T19:01:43.017Z,61.75
2023-04-30T19:04:12.336Z,60.77
2023-04-30T19:06:39.183Z,61.12
2023-04-30T19:09:07.666Z,60.60
2023-04-30T19:11:34.273Z,61.53
2023-04-30T19:14:01.843Z,61.85
2023-04-30T19:16:29.509Z,60.60
2023-04-30T19:18:58.022Z,61.56
2023-04-30T19:21:24.503Z,62.57
2023-04-30T19:23:50.897Z,62.90
2023-04-30T19:26:17.389Z,62.10
2023-04-30T19:28:44.386Z,63.55
2023-04-30T19:31:11.076Z,64.07
2023-04-30T19:33:38.832Z,64.39
2023-04-30T19:36:07.193Z,64.66
2023-04-30T19:38:34.774Z,64.99
2023-04-30T19:41:03.452Z,64.52
2023-04-30T19:43:32.359Z,64.81
2023-04-30T19:45:59.749Z,64.71
2023-04-30T19:48:27.391Z,64.56
2023-04-30T19:50:55.947Z,64.08
2023-04-30T19:53:23.725Z,65.37
2023-04-30T19:55:52.512Z,65.85
2023-04-30T19:58:21.235Z,67.85
2023-04-30T20:00:48.693Z,68.92
2023-04-30T20:03:16.201Z,70.28
2023-04-30T20:05:43.664Z,71.70
2023-04-30T20:08:12.231Z,71.97
2023-04-30T20:10:39.830Z,72.98
2023-04-30T20:13:06.459Z,73.39
2023-04-30T20:15:36.016Z,73.02
2023-04-30T20:18:04.643Z,73.49
2023-04-30T20:20:33.212Z,72.07
2023-04-30T20:23:03.583Z,74.16
2023-04-30T20:25:32.605Z,73.81
2023-04-30T20:28:00.008Z,74.34
2023-04-30T20:30:27.614Z,74.58
2023-04-30T20:32:57.028Z,73.42
2023-04-30T20:38:04.437Z,75.70
2023-04-30T20:40:33.035Z,76.02
2023-04-30T20:43:00.624Z,75.90
2023-04-30T20:45:28.121Z,75.82
2023-04-30T20:47:56.870Z,76.56
2023-04-30T20:50:25.568Z,75.78
2023-04-30T20:52:53.153Z,75.83
2023-04-30T20:55:19.794Z,75.54
2023-04-30T20:57:48.358Z,75.69
2023-04-30T21:00:16.933Z,75.09
2023-04-30T21:02:45.661Z,75.61
2023-04-30T21:05:13.132Z,75.59
2023-04-30T21:07:40.759Z,75.09
2023-04-30T21:10:08.414Z,74.48
2023-04-30T21:12:35.920Z,74.54
2023-04-30T21:15:03.531Z,75.01
2023-04-30T21:17:31.091Z,75.27
2023-04-30T21:19:57.799Z,72.91
2023-04-30T21:22:26.263Z,73.92
2023-04-30T21:24:54.880Z,75.02
2023-04-30T21:27:23.499Z,74.63
2023-04-30T21:29:51.095Z,74.33
2023-04-30T21:32:18.657Z,74.42
2023-04-30T21:34:46.270Z,73.93
2023-04-30T21:37:16.915Z,73.95
2023-04-30T21:39:44.475Z,74.51
2023-04-30T21:42:11.067Z,74.07
2023-04-30T21:44:38.686Z,72.65
2023-04-30T21:47:07.250Z,74.19
2023-04-30T21:49:35.886Z,74.40
2023-04-30T21:52:03.462Z,74.41
2023-04-30T21:54:31.044Z,73.83
2023-04-30T21:56:58.639Z,74.63
2023-04-30T21:59:27.215Z,72.38
2023-04-30T22:01:53.806Z,74.51
2023-04-30T22:07:04.055Z,71.97
2023-04-30T22:09:31.633Z,71.71
2023-04-30T22:11:58.239Z,72.03
2023-04-30T22:14:25.845Z,72.65
2023-04-30T22:16:52.438Z,72.37
2023-04-30T22:19:19.022Z,72.73
2023-04-30T22:21:45.613Z,72.96
2023-04-30T22:24:13.207Z,73.82
2023-04-30T22:26:39.779Z,75.06
2023-04-30T22:29:07.383Z,76.42
2023-04-30T22:31:35.027Z,74.52
2023-04-30T22:34:03.578Z,75.88
2023-04-30T22:36:31.171Z,73.57
2023-04-30T22:38:58.798Z,74.08
2023-04-30T22:41:25.372Z,75.00
2023-04-30T22:43:51.958Z,73.37
2023-04-30T22:46:18.593Z,75.23
2023-04-30T22:48:46.156Z,74.97
2023-04-30T22:51:13.751Z,74.96
2023-04-30T22:53:41.346Z,74.81
2023-04-30T22:56:08.959Z,75.33
2023-04-30T22:58:38.268Z,75.35
2023-04-30T23:01:05.173Z,75.74
2023-04-30T23:03:32.744Z,74.57
2023-04-30T23:06:01.360Z,74.77
2023-04-30T23:08:28.919Z,75.52
2023-04-30T23:10:57.694Z,74.67
2023-04-30T23:13:25.102Z,75.71
2023-04-30T23:15:53.694Z,75.27
2023-04-30T23:18:21.290Z,75.80
2023-04-30T23:20:47.869Z,75.16
2023-04-30T23:23:15.496Z,75.20
2023-04-30T23:25:42.030Z,75.16
2023-04-30T23:28:09.638Z,75.54
2023-04-30T23:30:37.431Z,76.25
2023-04-30T23:33:04.926Z,75.45
2023-04-30T23:35:32.417Z,76.15
2023-04-30T23:37:59.029Z,76.52
2023-04-30T23:40:28.446Z,76.72
2023-04-30T23:42:56.233Z,77.08
2023-04-30T23:45:23.811Z,76.91
2023-04-30T23:47:50.485Z,77.13
2023-04-30T23:50:17.979Z,76.57
2023-04-30T23:52:44.597Z,76.25
2023-04-30T23:55:12.185Z,75.05
2023-04-30T23:57:39.781Z,76.18
